메인 페이지
METAR-TAF:

METAR-TAF

공항 :

잭슨 국제공항

포트모르즈비, 파푸아뉴기니

위도: 09-26S, 경도: 147-13E, 고도: 38m

현재 날씨관측

예보는 55분 전, 20:00시(UTC)에 발표되었습니다.
남동18kt
온도 24°C
습도 89%
기압 1012 hPa
시정 10km 이상
고도 4600ft 상공 흐림

METAR: AYPY 202000Z 13018KT 9999 OVC046 24/22 Q1012

시각: 06:55 (20:55 UTC)

예보

예보는 5 시간 55분 전, 15:00시(UTC)에 발표되었습니다.
예보 대상 시간: 20일 18시부터 21일 18시까지 (UTC)
15kt, 순간 최대 풍속 26kt
시정 10km 이상
고도 3500ft 상공 구름 보통
20일 2200시부터 (UTC)
15kt, 순간 최대 풍속 26kt
시정 10km 이상
고도 2500ft 상공 구름 보통
고도 14000ft 상공 구름 보통

TAF: AYPY 201500Z 2018/2118 17015G26KT 9999 SCT035 FM202200 17015G26KT 9999 SCT025 SCT140

4,000개 이상의 공항 관측 자료 및 예보 (METAR 및 TAF 보고).

지도상에서 검색 가능한 기상관측소가 노란 점과 빨간 점으로 표시되어 있습니다.

기상관측소 명을 보려면 표시 위로 마우스를 이동하세요.

날씨 관측과 예보를 보려면 클릭하세요.

지도 변경 : 확대하려면 엑스 표시가 있는 녹색 버튼, 축소하려면 빼기 표시가 있는 녹색 버튼, 다음 페이지의 지도를 보려면 녹색 화살표를 클릭하세요.


METAR-TAF: